Terminal Aerodrome Forecast
Issued by NWS

Home | Current Version | Previous Version | Text Only | Print | Product List | Glossary On
Versions: 1 2 3 4 5 6 7 8 9 10 11 12 13 14 15 16 17
583
FTUS43 KAPX 212339
TAFTVC
TAF
KTVC 212339Z 2200/2224 32012G21KT 6SM -SHSN OVC035
     FM220600 31010KT P6SM VCSH BKN035
     FM221500 30006KT P6SM BKN035
     FM221700 27006KT P6SM BKN040
     FM222100 24006KT P6SM BKN040=

USA.gov is the U.S. government's official web portal to all federal, state and local government web resources and services.